Time;durP1;ratioP1;P1;durP2;ratioP2;P2;SDS_P1;SDS_P2;PMS_P1;PMS_P2;Temp;Humidity;BMP_temperature;BMP_pressure;BME280_temperature;BME280_humidity;BME280_pressure;Samples;Min_cycle;Max_cycle;Signal;HPM_P1;HPM_P2
2021/07/23 00:02:11;;;;;;;9.45;8.18;;;;;;;21.24;60.85;101081.66;5030392;28;20545;-55
2021/07/23 00:04:37;;;;;;;9.90;7.13;;;;;;;21.22;60.88;101078.16;5030116;28;20049;-55
2021/07/23 00:07:02;;;;;;;10.38;8.13;;;;;;;21.22;60.95;101083.53;5029805;28;20028;-55
2021/07/23 00:09:27;;;;;;;8.35;7.03;;;;;;;21.20;61.12;101072.88;5030178;28;20479;-55
2021/07/23 00:11:53;;;;;;;9.07;7.97;;;;;;;21.20;60.79;101083.59;5030613;28;20399;-55
2021/07/23 00:14:18;;;;;;;9.13;7.43;;;;;;;21.21;60.80;101081.81;5030098;28;20479;-55
2021/07/23 00:16:43;;;;;;;7.95;7.15;;;;;;;21.22;60.74;101083.53;5027247;28;20079;-55
2021/07/23 00:19:09;;;;;;;7.97;7.15;;;;;;;21.22;60.73;101080.84;5030072;28;20113;-55
2021/07/23 00:21:34;;;;;;;7.57;6.88;;;;;;;21.23;60.59;101071.84;5030262;28;20040;-55
2021/07/23 00:23:59;;;;;;;8.30;7.30;;;;;;;21.19;60.73;101076.50;5032139;28;20129;-55
2021/07/23 00:26:25;;;;;;;8.23;7.20;;;;;;;21.21;60.60;101074.59;5027682;28;20359;-55
2021/07/23 00:28:51;;;;;;;9.93;7.65;;;;;;;21.20;60.62;101077.41;5029072;28;20025;-55
2021/07/23 00:31:16;;;;;;;7.95;7.13;;;;;;;21.20;60.68;101072.88;5028040;28;20032;-54
2021/07/23 00:33:42;;;;;;;9.07;7.13;;;;;;;21.18;60.60;101074.78;5030129;28;20033;-54
2021/07/23 00:36:07;;;;;;;9.07;8.07;;;;;;;21.19;60.70;101078.31;5029873;28;20068;-54
2021/07/23 00:38:32;;;;;;;8.68;7.45;;;;;;;21.18;60.56;101080.16;5028204;28;20461;-54
2021/07/23 00:40:58;;;;;;;8.10;7.18;;;;;;;21.16;60.44;101071.28;5029093;28;20499;-54
2021/07/23 00:43:23;;;;;;;9.52;7.53;;;;;;;21.14;60.65;101063.31;5006744;28;20109;-55
2021/07/23 00:45:49;;;;;;;8.20;7.40;;;;;;;21.14;60.60;101063.31;5027992;28;20021;-54
2021/07/23 00:48:14;;;;;;;7.80;7.00;;;;;;;21.13;60.69;101077.66;5030213;28;20060;-55
2021/07/23 00:50:40;;;;;;;8.77;7.88;;;;;;;21.10;60.58;101067.09;5028391;28;20025;-54
2021/07/23 00:53:05;;;;;;;9.95;7.70;;;;;;;21.12;60.58;101065.22;5028613;28;20036;-54
2021/07/23 00:55:31;;;;;;;8.80;7.22;;;;;;;21.10;60.64;101067.09;5028779;28;20029;-54
2021/07/23 00:57:57;;;;;;;8.02;7.22;;;;;;;21.10;60.54;101075.13;5029721;28;20021;-54
2021/07/23 01:00:23;;;;;;;9.77;7.75;;;;;;;21.10;60.54;101076.94;5026237;28;20021;-54
2021/07/23 01:02:50;;;;;;;10.13;7.55;;;;;;;21.09;60.56;101078.75;5030057;28;20441;-54
2021/07/23 01:05:16;;;;;;;7.38;6.63;;;;;;;21.10;60.47;101071.56;5032047;28;20056;-54
2021/07/23 01:07:41;;;;;;;11.73;7.85;;;;;;;21.07;60.40;101069.91;5034029;28;20391;-54
2021/07/23 01:10:07;;;;;;;10.63;7.97;;;;;;;21.07;60.44;101077.09;5031931;28;20021;-54
2021/07/23 01:12:34;;;;;;;9.20;6.93;;;;;;;21.06;60.34;101078.03;5032719;28;20030;-54
2021/07/23 01:14:59;;;;;;;8.35;7.30;;;;;;;21.06;60.41;101069.97;5030707;28;20028;-54
2021/07/23 01:17:26;;;;;;;8.52;7.45;;;;;;;21.04;60.49;101070.03;5032934;28;20074;-54
2021/07/23 01:19:56;;;;;;;10.07;7.57;;;;;;;21.03;60.49;101071.00;5032427;28;20064;-53
2021/07/23 01:22:26;;;;;;;10.55;7.53;;;;;;;21.02;60.52;101069.28;5030085;28;20030;-54
2021/07/23 01:24:52;;;;;;;8.70;7.70;;;;;;;21.01;60.37;101065.69;5032059;28;20029;-54
2021/07/23 01:27:18;;;;;;;8.48;7.57;;;;;;;21.00;60.41;101071.13;5014770;28;20025;-54
2021/07/23 01:29:43;;;;;;;8.73;7.45;;;;;;;20.99;60.42;101059.56;5031521;28;20034;-54
2021/07/23 01:32:08;;;;;;;9.15;7.72;;;;;;;20.99;60.42;101058.69;5031650;28;20036;-54
2021/07/23 01:34:34;;;;;;;10.25;7.32;;;;;;;20.97;60.44;101061.44;5032414;28;20501;-54
2021/07/23 01:36:59;;;;;;;8.73;7.30;;;;;;;20.98;60.46;101062.31;5031162;28;20021;-54
2021/07/23 01:39:26;;;;;;;8.77;7.18;;;;;;;20.96;60.34;101059.69;5032655;28;20410;-54
2021/07/23 01:41:51;;;;;;;7.95;7.13;;;;;;;20.95;60.40;101057.97;5030775;28;20364;-54
2021/07/23 01:44:16;;;;;;;7.47;6.78;;;;;;;20.96;60.31;101064.19;5030949;28;20032;-55
2021/07/23 01:46:42;;;;;;;9.52;7.30;;;;;;;20.95;60.28;101065.13;5030211;28;20033;-54
2021/07/23 01:49:07;;;;;;;10.82;7.22;;;;;;;20.95;60.30;101065.13;5032636;28;20032;-54
2021/07/23 01:51:32;;;;;;;7.93;6.65;;;;;;;20.93;60.31;101058.94;5032788;28;20025;-54
2021/07/23 01:53:58;;;;;;;9.77;7.47;;;;;;;20.93;60.30;101069.69;5031143;28;20429;-54
2021/07/23 01:56:23;;;;;;;8.90;7.18;;;;;;;20.92;60.28;101063.47;5029553;28;20026;-54
2021/07/23 01:58:48;;;;;;;8.02;6.65;;;;;;;20.91;60.27;101064.41;5031824;28;20064;-54
2021/07/23 02:01:14;;;;;;;8.93;7.30;;;;;;;20.91;60.42;101066.22;5032403;28;20044;-54
2021/07/23 02:03:41;;;;;;;7.88;6.97;;;;;;;20.89;60.27;101064.47;5032060;28;20037;-54
2021/07/23 02:06:09;;;;;;;8.73;7.72;;;;;;;20.89;60.22;101064.47;5031715;28;20021;-54
2021/07/23 02:08:35;;;;;;;8.40;7.43;;;;;;;20.88;60.27;101062.72;5029103;28;20095;-54
2021/07/23 02:11:01;;;;;;;10.85;6.95;;;;;;;20.88;60.28;101056.47;5030491;28;20021;-54
2021/07/23 02:13:26;;;;;;;8.20;6.78;;;;;;;20.88;60.27;101056.47;5031515;28;20049;-54
2021/07/23 02:15:51;;;;;;;8.98;7.40;;;;;;;20.86;60.27;101053.88;5030388;28;20458;-54
2021/07/23 02:18:17;;;;;;;10.65;7.47;;;;;;;20.86;60.29;101053.88;5031783;28;20024;-54
2021/07/23 02:20:42;;;;;;;8.38;7.50;;;;;;;20.85;60.28;101057.50;5031552;28;20116;-54
2021/07/23 02:23:07;;;;;;;8.77;7.15;;;;;;;20.84;60.28;101050.38;5032116;28;20109;-54
2021/07/23 02:25:33;;;;;;;10.35;7.38;;;;;;;20.84;60.25;101046.84;5029575;28;20018;-54
2021/07/23 02:27:59;;;;;;;9.07;7.60;;;;;;;20.83;60.07;101051.31;5030691;28;20023;-54
2021/07/23 02:30:24;;;;;;;9.82;7.80;;;;;;;20.83;60.29;101055.81;5029701;28;20113;-54
2021/07/23 02:32:49;;;;;;;8.60;7.70;;;;;;;20.81;60.17;101044.31;5031412;28;20059;-54
2021/07/23 02:35:15;;;;;;;9.80;7.72;;;;;;;20.81;60.21;101042.47;5029579;28;20033;-53
2021/07/23 02:37:40;;;;;;;9.30;7.18;;;;;;;20.80;60.21;101051.47;5031193;28;20017;-54
2021/07/23 02:40:06;;;;;;;7.88;6.88;;;;;;;20.79;60.32;101047.06;5029061;28;20036;-54
2021/07/23 02:42:32;;;;;;;9.77;7.68;;;;;;;20.79;60.20;101044.38;5030238;28;20048;-54
2021/07/23 02:44:57;;;;;;;9.82;7.57;;;;;;;20.79;60.32;101040.81;5030123;28;20025;-54
2021/07/23 02:47:22;;;;;;;10.52;7.35;;;;;;;20.77;60.21;101035.50;5031305;28;20364;-54
2021/07/23 02:49:47;;;;;;;8.43;7.25;;;;;;;20.76;60.15;101034.66;5027962;28;20044;-55
2021/07/23 02:52:13;;;;;;;8.90;7.88;;;;;;;20.75;60.25;101032.06;5028909;28;20597;-55
2021/07/23 02:54:38;;;;;;;10.50;8.18;;;;;;;20.75;60.08;101034.72;5029943;28;20040;-55
2021/07/23 02:57:04;;;;;;;9.75;7.85;;;;;;;20.74;60.23;101027.66;5004111;28;20021;-55
2021/07/23 02:59:29;;;;;;;9.98;7.78;;;;;;;20.74;60.19;101033.00;5031847;28;20037;-55
2021/07/23 03:01:54;;;;;;;8.60;7.65;;;;;;;20.73;60.02;101028.56;5031526;28;20121;-55
2021/07/23 03:04:20;;;;;;;9.10;7.55;;;;;;;20.72;60.19;101030.38;5031722;28;20029;-55
2021/07/23 03:06:45;;;;;;;12.13;7.57;;;;;;;20.71;60.21;101039.34;5029804;28;20080;-54
2021/07/23 03:09:10;;;;;;;8.15;7.28;;;;;;;20.71;60.25;101027.78;5031367;28;20368;-54
2021/07/23 03:11:36;;;;;;;12.20;7.97;;;;;;;20.70;60.24;101031.38;5031118;28;20029;-54
2021/07/23 03:14:01;;;;;;;9.13;7.97;;;;;;;20.68;60.28;101023.44;5030207;28;20526;-55
2021/07/23 03:16:27;;;;;;;9.88;7.60;;;;;;;20.68;60.24;101022.56;5030346;28;20455;-55
2021/07/23 03:18:52;;;;;;;11.43;8.15;;;;;;;20.69;60.23;101026.97;5031552;28;20037;-54
2021/07/23 03:21:21;;;;;;;8.25;7.00;;;;;;;20.67;60.20;101023.50;5029451;28;20088;-55
2021/07/23 03:23:46;;;;;;;8.30;7.25;;;;;;;20.68;60.28;101018.06;5032682;28;20029;-55
2021/07/23 03:26:12;;;;;;;9.32;7.50;;;;;;;20.66;60.09;101024.44;5029953;28;20447;-55
2021/07/23 03:28:37;;;;;;;9.88;7.68;;;;;;;20.64;60.29;101021.81;5028426;28;20025;-55
2021/07/23 03:31:02;;;;;;;8.88;7.95;;;;;;;20.64;60.16;101022.69;5029577;28;20026;-54
2021/07/23 03:33:28;;;;;;;8.88;7.32;;;;;;;20.64;60.17;101019.13;5029437;28;20021;-54
2021/07/23 03:35:53;;;;;;;8.73;7.70;;;;;;;20.64;60.11;101013.78;5030825;28;20041;-54
2021/07/23 03:38:18;;;;;;;9.30;7.95;;;;;;;20.62;60.11;101011.19;5031577;28;20017;-54
2021/07/23 03:40:44;;;;;;;9.93;7.88;;;;;;;20.63;60.23;101004.88;5031614;28;20065;-54
2021/07/23 03:43:09;;;;;;;9.73;7.55;;;;;;;20.62;60.21;101000.47;5005279;28;20034;-54
2021/07/23 03:45:35;;;;;;;8.57;7.53;;;;;;;20.62;60.19;101003.16;5030470;28;20040;-54
2021/07/23 03:48:00;;;;;;;10.35;9.25;;;;;;;20.59;60.21;101003.28;5033052;28;20032;-54
2021/07/23 03:50:25;;;;;;;10.50;8.13;;;;;;;20.59;60.26;101005.97;5029987;28;20021;-54
2021/07/23 03:52:51;;;;;;;8.82;7.60;;;;;;;20.58;60.22;101001.53;5029204;28;20029;-54
2021/07/23 03:55:16;;;;;;;10.15;8.00;;;;;;;20.58;60.26;101004.22;5028750;28;20127;-55
2021/07/23 03:57:41;;;;;;;8.98;8.00;;;;;;;20.58;60.41;101008.72;5030683;28;20497;-54
2021/07/23 04:00:08;;;;;;;9.85;8.02;;;;;;;20.57;60.33;101004.31;5023725;28;20732;-54
2021/07/23 04:02:35;;;;;;;8.80;7.78;;;;;;;20.56;60.31;101008.78;5026867;28;20573;-54
2021/07/23 04:05:00;;;;;;;9.98;8.57;;;;;;;20.54;60.39;101002.63;5024195;28;20037;-55
2021/07/23 04:07:26;;;;;;;8.85;7.95;;;;;;;20.53;60.28;101000.88;5028369;28;20028;-54
2021/07/23 04:09:51;;;;;;;10.02;8.02;;;;;;;20.54;60.27;100999.94;5030662;28;20036;-54
2021/07/23 04:12:16;;;;;;;10.20;8.48;;;;;;;20.55;60.31;101016.88;5027949;28;20017;-54
2021/07/23 04:14:42;;;;;;;9.77;8.05;;;;;;;20.52;60.39;101009.88;5010132;28;20034;-54
2021/07/23 04:17:07;;;;;;;9.18;7.70;;;;;;;20.51;60.28;101013.50;5033738;28;20032;-54
2021/07/23 04:19:33;;;;;;;10.60;8.20;;;;;;;20.51;60.49;101013.50;5013218;28;20765;-55
2021/07/23 04:21:58;;;;;;;11.63;8.35;;;;;;;20.51;60.19;101013.50;5035277;28;20092;-54
2021/07/23 04:24:23;;;;;;;10.10;8.68;;;;;;;20.49;60.38;101016.25;5030542;28;21209;-54
2021/07/23 04:26:49;;;;;;;9.48;8.48;;;;;;;20.50;60.39;101014.41;5030918;28;20107;-54
2021/07/23 04:29:14;;;;;;;10.60;8.63;;;;;;;20.48;60.51;101013.63;5028588;28;20140;-54
2021/07/23 04:31:40;;;;;;;8.75;7.85;;;;;;;20.48;60.51;101010.94;5027122;28;20071;-54
2021/07/23 04:34:05;;;;;;;8.70;7.40;;;;;;;20.47;60.66;101020.78;5034596;28;20505;-54
2021/07/23 04:36:34;;;;;;;10.38;8.30;;;;;;;20.48;60.51;101019.00;5034157;28;20851;-54
2021/07/23 04:39:03;;;;;;;12.02;9.15;;;;;;;20.46;60.46;101016.38;5036543;28;20037;-54
2021/07/23 04:41:28;;;;;;;10.02;7.80;;;;;;;20.46;60.53;101018.16;5033487;28;20051;-54
2021/07/23 04:43:53;;;;;;;9.98;7.22;;;;;;;20.46;60.56;101020.84;5031815;28;20021;-55
2021/07/23 04:46:19;;;;;;;10.18;8.65;;;;;;;20.47;60.51;101025.28;5033008;28;20040;-55
2021/07/23 04:48:44;;;;;;;12.15;9.70;;;;;;;20.44;60.68;101020.91;5031580;28;20029;-54
2021/07/23 04:51:09;;;;;;;10.10;9.02;;;;;;;20.43;60.73;101015.63;5034449;28;20022;-54
2021/07/23 04:53:35;;;;;;;10.38;8.43;;;;;;;20.42;60.77;101021.94;5032141;28;20036;-55
2021/07/23 04:56:05;;;;;;;10.90;9.68;;;;;;;20.42;60.86;101017.47;5037105;28;20020;-55
2021/07/23 04:58:30;;;;;;;10.93;8.83;;;;;;;20.42;60.80;101027.28;5031941;28;20021;-54
2021/07/23 05:00:56;;;;;;;9.65;8.52;;;;;;;20.40;60.73;101019.31;5031449;28;20132;-55
2021/07/23 05:03:24;;;;;;;9.75;8.27;;;;;;;20.41;60.81;101025.56;5032858;28;20471;-54
2021/07/23 05:05:50;;;;;;;13.38;8.23;;;;;;;20.40;60.79;101023.81;5030329;28;20064;-55
2021/07/23 05:08:15;;;;;;;10.18;8.43;;;;;;;20.37;60.89;101020.34;5031601;28;20091;-55
2021/07/23 05:10:42;;;;;;;10.65;9.10;;;;;;;20.40;60.89;101030.03;5033468;28;20021;-55
2021/07/23 05:13:11;;;;;;;10.43;8.73;;;;;;;20.37;60.93;101031.06;5034030;28;20104;-54
2021/07/23 05:15:39;;;;;;;10.45;8.20;;;;;;;20.37;60.89;101028.38;5034483;28;20021;-56
2021/07/23 05:18:04;;;;;;;8.18;7.38;;;;;;;20.37;60.98;101036.41;5033341;28;20101;-55
2021/07/23 05:20:30;;;;;;;11.05;8.70;;;;;;;20.36;61.01;101028.44;5030448;28;20457;-55
2021/07/23 05:22:55;;;;;;;8.90;8.00;;;;;;;20.34;61.03;101025.81;5030870;28;20466;-55
2021/07/23 05:25:21;;;;;;;10.38;8.38;;;;;;;20.34;61.07;101030.34;5031379;28;20036;-56
2021/07/23 05:27:47;;;;;;;10.43;8.43;;;;;;;20.34;61.20;101023.16;5030191;28;20035;-55
2021/07/23 05:30:12;;;;;;;9.07;7.57;;;;;;;20.34;61.18;101035.69;5027451;28;20033;-54
2021/07/23 05:32:38;;;;;;;10.20;8.45;;;;;;;20.33;61.09;101037.47;5030144;28;20021;-55
2021/07/23 05:35:03;;;;;;;9.07;7.88;;;;;;;20.33;61.09;101037.47;5031593;28;20034;-55
2021/07/23 05:37:32;;;;;;;11.15;9.30;;;;;;;20.31;61.21;101031.31;5032868;28;20025;-54
2021/07/23 05:39:57;;;;;;;8.18;7.38;;;;;;;20.31;61.16;101025.09;5033647;28;20021;-55
2021/07/23 05:42:22;;;;;;;10.35;7.90;;;;;;;20.30;61.18;101026.91;5031567;28;20035;-55
2021/07/23 05:44:48;;;;;;;9.00;8.07;;;;;;;20.30;61.15;101029.59;5032305;28;20077;-56
2021/07/23 05:47:13;;;;;;;8.90;7.90;;;;;;;20.30;61.36;101024.22;5031169;28;20375;-56
2021/07/23 05:49:38;;;;;;;9.82;8.80;;;;;;;20.30;61.19;101031.41;5032021;28;20029;-55
2021/07/23 05:52:05;;;;;;;10.02;8.13;;;;;;;20.29;61.29;101030.53;5028234;28;20483;-55
2021/07/23 05:54:30;;;;;;;8.75;7.60;;;;;;;20.31;61.24;101035.81;5029559;28;20017;-55
2021/07/23 05:56:56;;;;;;;9.70;8.32;;;;;;;20.30;61.28;101037.63;5032081;28;20537;-56
2021/07/23 05:59:22;;;;;;;10.60;9.13;;;;;;;20.30;61.27;101039.44;5032320;28;20368;-55
2021/07/23 06:01:47;;;;;;;9.45;7.65;;;;;;;20.28;61.20;101036.81;5031629;28;20048;-55
2021/07/23 06:04:12;;;;;;;10.52;9.05;;;;;;;20.28;61.09;101042.19;5031360;28;20059;-56
2021/07/23 06:06:38;;;;;;;9.68;8.13;;;;;;;20.28;61.13;101031.47;5027427;28;20028;-56
2021/07/23 06:09:03;;;;;;;10.00;8.30;;;;;;;20.28;61.24;101028.78;5035462;28;20053;-55
2021/07/23 06:11:28;;;;;;;8.85;7.95;;;;;;;20.28;61.18;101035.94;5040836;28;20542;-55
2021/07/23 06:13:54;;;;;;;9.88;7.88;;;;;;;20.29;61.15;101037.69;5034215;28;20713;-55
2021/07/23 06:16:19;;;;;;;9.15;8.25;;;;;;;20.26;61.30;101038.69;5007657;28;20026;-55
2021/07/23 06:18:44;;;;;;;9.80;8.55;;;;;;;20.25;60.95;101031.59;5030693;28;20033;-56
2021/07/23 06:21:10;;;;;;;10.75;7.70;;;;;;;20.25;61.25;101028.94;5028805;28;20103;-55
2021/07/23 06:23:35;;;;;;;8.55;7.60;;;;;;;20.25;61.38;101042.31;5034013;28;20018;-55
2021/07/23 06:26:02;;;;;;;8.18;7.22;;;;;;;20.25;61.29;101031.59;5031871;28;20026;-55
2021/07/23 06:28:27;;;;;;;8.43;7.53;;;;;;;20.24;61.20;101032.56;5028879;28;20021;-55
2021/07/23 06:31:00;;;;;;;9.10;8.13;;;;;;;20.24;60.91;101033.41;5032050;28;20547;-56
2021/07/23 06:33:25;;;;;;;9.00;8.10;;;;;;;20.25;60.94;101034.28;5030671;28;20061;-56
2021/07/23 06:35:51;;;;;;;9.50;7.88;;;;;;;20.25;60.97;101036.97;5031702;28;20106;-55
2021/07/23 06:38:16;;;;;;;7.80;6.93;;;;;;;20.22;61.06;101032.63;5037836;28;20021;-55
2021/07/23 06:40:42;;;;;;;8.45;7.57;;;;;;;20.25;60.90;101034.28;5011172;28;20034;-56
2021/07/23 06:43:07;;;;;;;9.65;8.38;;;;;;;20.22;60.85;101034.41;5031614;28;20025;-55
2021/07/23 06:45:33;;;;;;;8.00;7.07;;;;;;;20.24;60.90;101029.88;5033873;28;20020;-55
2021/07/23 06:47:58;;;;;;;8.27;7.20;;;;;;;20.22;60.97;101031.72;5030818;28;20029;-55
2021/07/23 06:50:23;;;;;;;8.43;7.63;;;;;;;20.24;61.02;101035.22;5031175;28;20419;-55
2021/07/23 06:52:50;;;;;;;9.68;7.18;;;;;;;20.22;60.88;101031.72;5032099;28;20064;-55
2021/07/23 06:55:15;;;;;;;8.80;7.03;;;;;;;20.20;60.95;101028.25;5032441;28;20100;-55
2021/07/23 06:57:40;;;;;;;8.48;7.57;;;;;;;20.20;61.03;101033.59;5032153;28;20116;-56
2021/07/23 07:00:06;;;;;;;9.77;7.68;;;;;;;20.20;60.99;101028.25;5031987;28;20036;-55
2021/07/23 07:02:31;;;;;;;8.15;7.35;;;;;;;20.21;60.82;101035.34;5030543;28;20112;-55
2021/07/23 07:04:58;;;;;;;7.30;6.60;;;;;;;20.19;60.68;101032.75;5030265;28;20043;-55
2021/07/23 07:07:23;;;;;;;8.38;7.28;;;;;;;20.20;60.87;101036.28;5031312;28;20025;-55
2021/07/23 07:09:48;;;;;;;8.15;7.30;;;;;;;20.20;61.22;101028.25;5029302;28;20040;-55
2021/07/23 07:12:14;;;;;;;7.72;6.63;;;;;;;20.20;60.79;101034.47;5030844;28;20048;-55
2021/07/23 07:14:39;;;;;;;7.57;6.43;;;;;;;20.19;60.73;101023.84;5029294;28;20033;-56
2021/07/23 07:17:04;;;;;;;7.90;7.20;;;;;;;20.19;60.73;101029.19;5029985;28;20048;-56
2021/07/23 07:19:30;;;;;;;8.45;6.75;;;;;;;20.19;60.88;101026.50;5029547;28;20029;-55
2021/07/23 07:21:55;;;;;;;6.85;6.15;;;;;;;20.17;60.86;101031.94;5031240;28;20098;-55
2021/07/23 07:24:22;;;;;;;8.02;7.22;;;;;;;20.18;60.96;101024.78;5030921;28;20475;-56
2021/07/23 07:26:48;;;;;;;7.97;6.35;;;;;;;20.18;60.93;101022.09;5028228;28;20175;-55
2021/07/23 07:29:14;;;;;;;7.75;7.03;;;;;;;20.18;60.87;101020.31;5031257;28;20022;-55
2021/07/23 07:31:40;;;;;;;7.57;6.78;;;;;;;20.18;60.75;101019.41;5030857;28;20025;-55
2021/07/23 07:34:06;;;;;;;7.70;6.93;;;;;;;20.16;60.75;101024.84;5029241;28;20036;-54
2021/07/23 07:36:31;;;;;;;7.68;6.72;;;;;;;20.16;60.79;101022.16;5030832;28;20387;-55
2021/07/23 07:38:58;;;;;;;8.02;7.22;;;;;;;20.17;60.82;101023.03;5031096;28;20029;-55
2021/07/23 07:41:25;;;;;;;6.50;5.90;;;;;;;20.17;60.98;101023.03;5028778;28;20143;-55
2021/07/23 07:43:51;;;;;;;7.80;6.65;;;;;;;20.17;60.98;101031.06;5033123;28;20021;-54
2021/07/23 07:46:16;;;;;;;7.90;7.20;;;;;;;20.18;60.88;101031.00;5026074;28;20498;-55
2021/07/23 07:48:41;;;;;;;7.20;6.47;;;;;;;20.16;61.08;101024.84;5031490;28;20463;-55
2021/07/23 07:51:08;;;;;;;6.72;6.13;;;;;;;20.18;60.93;101027.44;5029802;28;20017;-55
2021/07/23 07:53:34;;;;;;;6.88;6.28;;;;;;;20.19;61.16;101026.50;5031347;28;20052;-54
2021/07/23 07:56:00;;;;;;;7.68;6.90;;;;;;;20.18;60.87;101019.41;5030101;28;20456;-54
2021/07/23 07:58:26;;;;;;;7.25;6.20;;;;;;;20.17;61.17;101023.91;5031097;28;20804;-55
2021/07/23 08:00:51;;;;;;;6.80;6.10;;;;;;;20.17;61.12;101023.03;5032229;28;20033;-55
2021/07/23 08:03:18;;;;;;;8.80;7.50;;;;;;;20.16;60.91;101027.53;5030070;28;20033;-55
2021/07/23 08:05:43;;;;;;;7.38;6.68;;;;;;;20.15;60.83;101022.22;5029704;28;20502;-55
2021/07/23 08:08:10;;;;;;;7.35;6.65;;;;;;;20.17;60.92;101020.38;5031878;28;20021;-55
2021/07/23 08:10:36;;;;;;;7.38;6.70;;;;;;;20.17;61.08;101018.53;5029329;28;20029;-54
2021/07/23 08:13:05;;;;;;;8.38;7.50;;;;;;;20.17;61.15;101017.69;5030510;28;20060;-55
2021/07/23 08:15:30;;;;;;;7.18;6.47;;;;;;;20.16;61.37;101015.94;5033252;28;20037;-55
2021/07/23 08:17:57;;;;;;;7.95;7.25;;;;;;;20.16;61.23;101015.94;5035942;28;20032;-55
2021/07/23 08:20:23;;;;;;;8.30;7.45;;;;;;;20.17;61.18;101006.97;5043714;28;20132;-54
2021/07/23 08:22:48;;;;;;;7.60;6.55;;;;;;;20.16;61.24;101011.44;5042158;28;20026;-55
2021/07/23 08:25:14;;;;;;;7.75;6.95;;;;;;;20.16;61.33;101010.56;5032727;28;20034;-55
2021/07/23 08:27:39;;;;;;;7.93;7.00;;;;;;;20.17;61.18;101006.97;5034495;28;20075;-55
2021/07/23 08:30:05;;;;;;;6.95;6.20;;;;;;;20.18;61.23;101008.72;5024097;28;20017;-55
2021/07/23 08:32:36;;;;;;;7.03;6.35;;;;;;;20.16;61.34;101003.41;5036770;28;20053;-54
2021/07/23 08:35:05;;;;;;;7.75;6.57;;;;;;;20.19;61.50;101005.09;5034475;28;20076;-54
2021/07/23 08:37:30;;;;;;;7.15;6.45;;;;;;;20.17;61.53;101007.84;5032900;28;20026;-54
2021/07/23 08:39:56;;;;;;;7.38;6.78;;;;;;;20.17;61.37;100998.94;5034678;28;20115;-55
2021/07/23 08:42:29;;;;;;;7.50;6.80;;;;;;;20.16;61.61;100997.19;5031522;28;20029;-55
2021/07/23 08:44:58;;;;;;;8.55;7.65;;;;;;;20.17;61.53;101004.31;5033916;28;20383;-55
2021/07/23 08:47:24;;;;;;;8.18;7.07;;;;;;;20.16;61.53;100997.19;5031226;28;20013;-55
2021/07/23 08:49:50;;;;;;;9.68;8.43;;;;;;;20.17;61.45;101002.47;5032525;28;20475;-55
2021/07/23 08:52:16;;;;;;;7.82;7.13;;;;;;;20.18;61.40;100998.00;5033903;28;20033;-55
2021/07/23 08:54:43;;;;;;;10.07;7.63;;;;;;;20.18;61.67;100995.31;5033733;28;20028;-55
2021/07/23 08:57:09;;;;;;;7.38;6.60;;;;;;;20.19;61.49;100999.72;5031671;28;20071;-55
2021/07/23 08:59:34;;;;;;;8.00;7.20;;;;;;;20.20;61.55;101004.13;5032333;28;20060;-56
2021/07/23 09:02:01;;;;;;;7.25;6.55;;;;;;;20.17;61.76;101005.16;5034666;28;20076;-55
2021/07/23 09:04:29;;;;;;;9.38;6.57;;;;;;;20.20;61.73;100996.09;5031469;28;20041;-55
2021/07/23 09:07:29;;;;;;;9.18;8.18;;;;;;;20.19;61.78;100999.72;5032898;28;20018;-56
2021/07/23 09:10:05;;;;;;;9.77;8.57;;;;;;;20.21;61.64;101000.53;5032560;28;20743;-55
2021/07/23 09:12:44;;;;;;;10.38;8.20;;;;;;;20.19;61.69;100999.72;5031359;28;20036;-55
2021/07/23 09:15:16;;;;;;;10.43;7.93;;;;;;;20.19;61.90;100995.25;5021618;28;20026;-55
2021/07/23 09:17:41;;;;;;;9.07;8.18;;;;;;;20.19;61.84;100997.06;5033436;28;20017;-55
2021/07/23 09:20:07;;;;;;;10.07;8.05;;;;;;;20.21;61.85;100995.19;5033061;28;20029;-55
2021/07/23 09:22:51;;;;;;;9.15;8.05;;;;;;;20.22;61.99;101003.16;5035781;28;20027;-55
2021/07/23 09:25:40;;;;;;;11.88;7.70;;;;;;;20.23;61.82;101001.34;5033520;28;20402;-55
2021/07/23 09:28:18;;;;;;;9.82;8.63;;;;;;;20.23;61.76;100995.97;5031823;28;20025;-55
2021/07/23 09:30:43;;;;;;;10.15;7.97;;;;;;;20.22;61.81;100983.53;5033013;28;20030;-55
2021/07/23 09:33:15;;;;;;;10.45;7.47;;;;;;;20.23;61.96;100979.91;5030413;28;20079;-55
2021/07/23 09:35:55;;;;;;;9.15;8.23;;;;;;;20.23;61.76;100978.09;5030589;28;20030;-55
2021/07/23 09:38:32;;;;;;;8.25;7.45;;;;;;;20.23;61.74;100970.06;5032624;28;20014;-55
2021/07/23 09:40:58;;;;;;;9.18;8.23;;;;;;;20.24;61.71;100976.31;5033308;28;20033;-55
2021/07/23 09:43:31;;;;;;;8.77;7.97;;;;;;;20.24;61.80;100971.81;5033535;28;20087;-55
2021/07/23 09:46:16;;;;;;;9.10;8.15;;;;;;;20.27;61.94;100967.25;5033882;28;20025;-55
2021/07/23 09:48:42;;;;;;;8.77;7.95;;;;;;;20.24;62.00;100970.97;5029999;28;20025;-55
2021/07/23 09:51:07;;;;;;;9.57;8.68;;;;;;;20.25;61.66;100970.88;5031842;28;20112;-55
2021/07/23 09:53:34;;;;;;;8.02;7.22;;;;;;;20.25;61.83;100960.16;5031294;28;20677;-55
2021/07/23 09:56:04;;;;;;;8.57;7.15;;;;;;;20.26;62.05;100958.34;5035009;28;20075;-55
2021/07/23 09:58:30;;;;;;;8.65;7.75;;;;;;;20.27;61.94;100953.88;5033063;28;20485;-55
2021/07/23 10:01:00;;;;;;;9.40;7.75;;;;;;;20.26;61.68;100950.31;5036344;28;20112;-55
2021/07/23 10:03:27;;;;;;;9.13;8.23;;;;;;;20.27;61.71;100949.38;5012493;28;20379;-55
2021/07/23 10:05:53;;;;;;;8.88;7.38;;;;;;;20.29;61.76;100950.19;4995869;23;20034;-54
2021/07/23 10:08:26;;;;;;;9.10;7.72;;;;;;;20.30;61.72;100946.56;4970667;28;20050;-54
2021/07/23 10:10:53;;;;;;;9.15;8.18;;;;;;;20.29;61.95;100946.63;4972374;28;20127;-54
2021/07/23 10:13:21;;;;;;;10.98;8.20;;;;;;;20.30;61.93;100949.25;4995115;28;20027;-55
2021/07/23 10:15:47;;;;;;;8.15;7.35;;;;;;;20.31;61.65;100944.75;4963825;28;20054;-54
2021/07/23 10:18:17;;;;;;;8.18;7.38;;;;;;;20.31;61.61;100934.91;4957885;28;20027;-54
2021/07/23 10:20:45;;;;;;;12.05;7.45;;;;;;;20.30;61.71;100943.03;4975891;28;20027;-54
2021/07/23 10:23:10;;;;;;;9.55;7.53;;;;;;;20.32;61.91;100941.13;4954694;28;20022;-54
2021/07/23 10:25:37;;;;;;;8.63;7.28;;;;;;;20.31;61.93;100945.59;4975861;28;20054;-55
2021/07/23 10:28:03;;;;;;;8.05;7.25;;;;;;;20.33;61.77;100933.03;4960002;28;20019;-54
2021/07/23 10:30:35;;;;;;;8.38;7.57;;;;;;;20.33;61.69;100930.34;4957067;28;20031;-55
2021/07/23 10:33:02;;;;;;;9.10;7.35;;;;;;;20.34;61.80;100934.75;4975919;28;20029;-55
2021/07/23 10:35:32;;;;;;;8.35;7.00;;;;;;;20.35;61.67;100936.53;4982285;28;20102;-55
2021/07/23 10:37:58;;;;;;;7.93;7.07;;;;;;;20.35;61.80;100925.81;4959373;28;20362;-55
2021/07/23 10:40:32;;;;;;;9.55;8.57;;;;;;;20.35;61.86;100917.78;4968359;28;20069;-54
2021/07/23 10:42:57;;;;;;;7.50;6.80;;;;;;;20.36;61.75;100908.78;4958582;28;20054;-55
2021/07/23 10:45:39;;;;;;;8.35;7.45;;;;;;;20.37;61.75;100912.31;4973246;28;20042;-55
2021/07/23 10:48:04;;;;;;;9.73;7.97;;;;;;;20.35;61.65;100904.38;4971477;28;20029;-55
2021/07/23 10:50:42;;;;;;;7.93;7.13;;;;;;;20.37;61.69;100901.59;4956399;28;20023;-54
2021/07/23 10:53:32;;;;;;;8.52;7.68;;;;;;;20.39;61.66;100905.09;4959304;28;20122;-55
2021/07/23 10:55:59;;;;;;;9.02;8.20;;;;;;;20.41;61.89;100902.34;4956691;28;20023;-55
2021/07/23 10:58:24;;;;;;;8.88;7.97;;;;;;;20.41;61.75;100899.66;4955440;28;20035;-54
2021/07/23 11:00:55;;;;;;;8.73;7.82;;;;;;;20.40;61.71;100901.47;4959381;28;20082;-55
2021/07/23 11:03:36;;;;;;;;;;;;;;;20.44;61.73;100896.84;4955900;28;20027;-55
2021/07/23 11:06:27;;;;;;;8.60;7.60;;;;;;;20.43;61.68;100889.72;4957296;28;19949;-54
2021/07/23 11:08:54;;;;;;;9.13;8.23;;;;;;;20.42;61.74;100888.88;4965029;28;20023;-57
2021/07/23 11:11:24;;;;;;;10.52;8.30;;;;;;;20.43;61.88;100887.06;4956574;28;20035;-57
2021/07/23 11:13:49;;;;;;;10.02;8.27;;;;;;;20.41;61.71;100894.31;4957838;28;20067;-57
2021/07/23 11:16:17;;;;;;;10.13;7.80;;;;;;;20.42;61.68;100888.88;4963545;28;20841;-57
2021/07/23 11:18:52;;;;;;;10.35;8.27;;;;;;;20.46;61.67;100894.94;4937725;28;20020;-57
2021/07/23 11:21:18;;;;;;;8.60;7.70;;;;;;;20.46;61.46;100879.75;4959682;28;20026;-58
2021/07/23 11:23:45;;;;;;;8.30;7.50;;;;;;;20.47;61.67;100875.28;4978530;28;20039;-55